Time;durP1;ratioP1;P1;durP2;ratioP2;P2;SDS_P1;SDS_P2;PMS_P1;PMS_P2;Temp;Humidity;BMP_temperature;BMP_pressure;BME280_temperature;BME280_humidity;BME280_pressure;Samples;Min_cycle;Max_cycle;Signal;HPM_P1;HPM_P2
2022/05/14 00:00:09;;;;;;;4.03;1.40;;;;;;;14.85;76.47;99067.06;5079095;28;20035;-60
2022/05/14 00:03:02;;;;;;;3.75;1.52;;;;;;;14.74;74.90;99064.44;5092491;28;20044;-60
2022/05/14 00:05:48;;;;;;;4.82;1.42;;;;;;;14.75;72.49;99063.50;5092278;28;20040;-59
2022/05/14 00:08:33;;;;;;;6.18;1.30;;;;;;;14.76;73.50;99075.72;5092256;28;20385;-59
2022/05/14 00:14:22;;;;;;;5.18;1.50;;;;;;;14.61;72.81;99083.06;5090995;28;20066;-59
2022/05/14 00:17:07;;;;;;;3.63;1.10;;;;;;;14.57;73.84;99087.75;5083664;28;20052;-61
2022/05/14 00:19:52;;;;;;;8.93;1.58;;;;;;;14.52;76.11;99087.28;5094100;28;20043;-61
2022/05/14 00:22:36;;;;;;;2.70;1.30;;;;;;;14.39;76.11;99076.88;5097208;28;20088;-59
2022/05/14 00:25:21;;;;;;;1.92;1.50;;;;;;;14.38;77.41;99078.66;5112003;28;20123;-61
2022/05/14 00:28:06;;;;;;;3.25;1.38;;;;;;;14.31;75.11;99081.91;5112059;28;20075;-58
2022/05/14 00:30:51;;;;;;;3.38;1.70;;;;;;;14.26;75.18;99082.28;5110998;28;20243;-61
2022/05/14 00:33:36;;;;;;;6.15;1.33;;;;;;;14.36;75.43;99085.84;5110893;28;20044;-60
2022/05/14 00:36:20;;;;;;;4.78;1.60;;;;;;;14.24;74.77;99084.19;5111147;28;20118;-60
2022/05/14 00:39:05;;;;;;;3.50;1.40;;;;;;;14.23;76.01;99087.81;5096845;28;20053;-61
2022/05/14 00:41:50;;;;;;;3.67;1.60;;;;;;;14.10;75.39;99086.13;5112054;28;20039;-59
2022/05/14 00:44:36;;;;;;;4.15;1.48;;;;;;;13.97;75.10;99077.53;5096475;28;20368;-60
2022/05/14 00:47:20;;;;;;;6.15;1.40;;;;;;;13.90;74.84;99077.16;5111816;28;20042;-60
2022/05/14 00:50:41;;;;;;;3.40;1.10;;;;;;;13.96;76.57;99074.03;5112132;28;20069;-61
2022/05/14 00:53:35;;;;;;;2.47;1.33;;;;;;;13.88;73.03;99073.78;5111016;28;20100;-60
2022/05/14 00:56:27;;;;;;;5.90;1.35;;;;;;;13.91;72.20;99074.41;5112134;28;20054;-60
2022/05/14 00:59:14;;;;;;;5.60;1.63;;;;;;;13.91;70.28;99073.56;5110995;28;20071;-60
2022/05/14 01:01:59;;;;;;;2.40;1.20;;;;;;;13.97;70.04;99073.06;5111045;28;20051;-60
2022/05/14 01:04:45;;;;;;;3.30;1.30;;;;;;;14.04;68.97;99078.69;5110778;28;20089;-60
2022/05/14 01:07:31;;;;;;;5.35;1.45;;;;;;;14.21;68.00;99080.03;5111012;28;20035;-60
2022/05/14 01:10:18;;;;;;;1.83;1.00;;;;;;;14.32;66.66;99088.84;5110906;28;20108;-60
2022/05/14 01:13:03;;;;;;;3.25;1.30;;;;;;;14.25;67.42;99081.44;5111831;28;20040;-60
2022/05/14 01:15:53;;;;;;;5.45;1.33;;;;;;;14.22;67.18;99080.84;5082486;28;20154;-59
2022/05/14 01:18:41;;;;;;;1.75;1.05;;;;;;;14.34;69.49;99077.25;5124975;28;20568;-59
2022/05/14 01:21:41;;;;;;;1.33;0.98;;;;;;;14.29;67.42;99069.72;5111791;28;20035;-61
2022/05/14 01:28:01;;;;;;;5.47;1.08;;;;;;;14.23;66.38;99078.09;5110720;28;20055;-59
2022/05/14 01:30:51;;;;;;;6.68;1.38;;;;;;;14.33;67.09;99067.66;5111603;28;20050;-62
2022/05/14 01:33:36;;;;;;;7.00;1.60;;;;;;;14.18;67.13;99075.00;5125496;28;20039;-60
2022/05/14 01:36:23;;;;;;;3.63;1.13;;;;;;;14.19;66.40;99076.66;5096720;28;20047;-60
2022/05/14 01:39:08;;;;;;;3.75;1.20;;;;;;;14.12;67.63;99072.81;5110448;28;20040;-59
2022/05/14 01:41:53;;;;;;;3.75;1.60;;;;;;;14.21;68.56;99073.91;5127634;27;20035;-60
2022/05/14 01:44:40;;;;;;;4.82;1.55;;;;;;;14.17;66.21;99070.66;5114485;28;20046;-60
2022/05/14 01:47:25;;;;;;;3.15;1.52;;;;;;;14.12;66.64;99071.03;5114690;28;20532;-60
2022/05/14 01:50:10;;;;;;;2.92;1.10;;;;;;;14.11;66.95;99071.16;5099953;28;20389;-61
2022/05/14 01:52:55;;;;;;;2.25;1.17;;;;;;;14.23;65.77;99075.44;5114661;28;20077;-60
2022/05/14 01:55:41;;;;;;;5.70;1.60;;;;;;;14.20;66.09;99074.88;5100541;28;20201;-60
2022/05/14 01:58:43;;;;;;;3.08;1.30;;;;;;;14.12;66.10;99072.81;5114321;28;20044;-60
2022/05/14 02:01:38;;;;;;;3.22;1.30;;;;;;;14.16;67.17;99077.75;5113902;28;20067;-60
2022/05/14 02:04:23;;;;;;;2.85;1.25;;;;;;;14.08;65.84;99081.94;5115205;28;20040;-60
2022/05/14 02:07:07;;;;;;;3.80;1.13;;;;;;;14.09;66.24;99076.53;5114115;28;20142;-60
2022/05/14 02:09:53;;;;;;;2.30;1.30;;;;;;;14.07;65.97;99075.00;5108447;28;20060;-60
2022/05/14 02:12:40;;;;;;;3.75;1.42;;;;;;;14.06;65.18;99081.22;5092577;28;20044;-60
2022/05/14 02:15:25;;;;;;;4.03;1.45;;;;;;;14.04;65.39;99082.19;5107876;28;20474;-60
2022/05/14 02:18:10;;;;;;;3.08;1.13;;;;;;;14.13;64.88;99092.97;5094382;28;20044;-60
2022/05/14 02:20:55;;;;;;;3.42;1.48;;;;;;;14.11;66.59;99090.44;5079501;28;20067;-60
2022/05/14 02:23:40;;;;;;;3.28;1.27;;;;;;;13.99;65.53;99086.13;5078945;28;20032;-60
2022/05/14 02:26:25;;;;;;;2.08;1.27;;;;;;;13.93;65.51;99084.81;5079072;28;20121;-61
2022/05/14 02:29:09;;;;;;;7.68;1.50;;;;;;;13.96;65.49;99084.56;5093220;28;20521;-61
2022/05/14 02:31:54;;;;;;;3.15;1.60;;;;;;;13.88;65.19;99082.53;5093160;28;20051;-58
2022/05/14 02:34:39;;;;;;;3.88;1.42;;;;;;;13.81;66.79;99080.50;5093141;28;20119;-61
2022/05/14 02:37:26;;;;;;;3.35;1.00;;;;;;;13.94;66.96;99090.94;5078987;28;20044;-59
2022/05/14 02:40:12;;;;;;;3.78;1.52;;;;;;;13.78;64.71;99087.69;5093943;28;20126;-60
2022/05/14 02:42:57;;;;;;;3.30;1.20;;;;;;;13.71;64.87;99096.16;5093192;28;20036;-60
2022/05/14 02:45:42;;;;;;;3.28;1.20;;;;;;;13.65;65.63;99093.03;5092708;28;20084;-60
2022/05/14 02:48:27;;;;;;;4.10;1.63;;;;;;;13.63;65.11;99092.31;5093184;28;20044;-59
2022/05/14 02:51:13;;;;;;;2.72;1.20;;;;;;;13.63;67.72;99094.94;5078325;28;20471;-60
2022/05/14 02:53:58;;;;;;;3.13;1.60;;;;;;;13.60;65.62;99086.44;5092394;28;20040;-59
2022/05/14 02:56:42;;;;;;;5.35;1.15;;;;;;;13.51;65.27;99085.38;5078636;28;20048;-59
2022/05/14 02:59:27;;;;;;;2.60;1.00;;;;;;;13.47;65.09;99089.97;5094137;28;20040;-60
2022/05/14 03:02:12;;;;;;;3.92;1.10;;;;;;;13.49;64.88;99093.34;5092454;28;20048;-60
2022/05/14 03:04:57;;;;;;;2.45;1.17;;;;;;;13.49;67.28;99087.22;5092413;28;20532;-60
2022/05/14 03:07:42;;;;;;;2.55;1.08;;;;;;;13.41;64.74;99096.56;5078284;28;20034;-60
2022/05/14 03:10:27;;;;;;;3.00;1.20;;;;;;;13.37;65.88;99096.88;5092494;28;20040;-59
2022/05/14 03:13:12;;;;;;;1.35;1.00;;;;;;;13.28;65.78;99098.44;5093261;28;20051;-60
2022/05/14 03:15:57;;;;;;;2.97;1.17;;;;;;;13.12;66.46;99098.72;5093111;28;20036;-60
2022/05/14 03:18:42;;;;;;;3.38;1.50;;;;;;;13.03;66.83;99095.81;5092681;28;20064;-60
2022/05/14 03:21:27;;;;;;;9.48;1.33;;;;;;;13.07;66.75;99106.97;5092325;28;20036;-59
2022/05/14 03:24:12;;;;;;;3.20;1.27;;;;;;;12.92;67.32;99112.41;5092176;28;20044;-59
2022/05/14 03:26:57;;;;;;;4.50;1.30;;;;;;;12.93;67.84;99115.84;5093157;28;20040;-59
2022/05/14 03:29:41;;;;;;;3.42;1.17;;;;;;;12.89;69.88;99115.22;5093014;28;20118;-60
2022/05/14 03:32:26;;;;;;;1.70;1.00;;;;;;;12.84;69.09;99112.13;5092871;28;20040;-60
2022/05/14 03:35:11;;;;;;;5.57;1.25;;;;;;;12.80;67.76;99124.63;5078339;28;20483;-60
2022/05/14 03:37:56;;;;;;;6.20;1.50;;;;;;;12.67;68.22;99123.84;5092770;28;20059;-61
2022/05/14 03:40:41;;;;;;;7.85;1.42;;;;;;;12.49;69.12;99128.59;5092697;28;20047;-60
2022/05/14 03:43:26;;;;;;;4.93;1.20;;;;;;;12.47;72.46;99133.16;5091832;28;20336;-59
2022/05/14 03:46:11;;;;;;;2.38;1.15;;;;;;;12.39;72.98;99137.16;5077606;28;20047;-62
2022/05/14 03:48:56;;;;;;;4.20;1.50;;;;;;;12.32;75.69;99141.16;5077821;28;20463;-59
2022/05/14 03:51:40;;;;;;;3.53;1.13;;;;;;;12.24;75.31;99143.50;5077509;28;20060;-59
2022/05/14 03:54:25;;;;;;;3.13;1.45;;;;;;;12.19;75.75;99142.00;5091774;28;20067;-59
2022/05/14 03:57:10;;;;;;;9.90;1.70;;;;;;;12.09;75.49;99142.75;5091348;28;20036;-60
2022/05/14 03:59:55;;;;;;;2.90;1.17;;;;;;;12.02;75.53;99147.56;5091477;28;20043;-59
2022/05/14 04:02:40;;;;;;;4.20;1.20;;;;;;;12.03;75.47;99143.97;5091924;28;20032;-59
2022/05/14 04:05:25;;;;;;;4.63;1.13;;;;;;;11.98;72.16;99144.28;5091329;28;20044;-58
2022/05/14 04:08:10;;;;;;;3.92;1.23;;;;;;;12.13;70.83;99137.19;5091316;28;20483;-60
2022/05/14 04:10:56;;;;;;;2.58;1.23;;;;;;;12.20;70.57;99140.22;5077083;28;20040;-60
2022/05/14 04:13:41;;;;;;;4.68;1.23;;;;;;;12.39;68.88;99146.81;5077102;28;20367;-60
2022/05/14 04:16:26;;;;;;;5.07;1.50;;;;;;;12.42;68.16;99144.81;5091342;28;20057;-60
2022/05/14 04:19:11;;;;;;;2.03;1.08;;;;;;;12.51;67.98;99142.47;5091166;28;20059;-60
2022/05/14 04:21:56;;;;;;;3.70;1.38;;;;;;;12.55;67.75;99136.91;5090939;28;20047;-60
2022/05/14 04:24:41;;;;;;;4.57;1.10;;;;;;;12.52;67.01;99141.53;5090969;28;20047;-60
2022/05/14 04:27:26;;;;;;;3.42;1.23;;;;;;;12.52;67.08;99144.16;5105431;28;20040;-60
2022/05/14 04:30:13;;;;;;;2.80;1.05;;;;;;;12.62;67.98;99152.22;5077024;28;20059;-60
2022/05/14 04:32:58;;;;;;;3.80;1.20;;;;;;;12.60;65.90;99151.53;5076859;28;20100;-59
2022/05/14 04:35:43;;;;;;;4.90;1.83;;;;;;;12.71;66.28;99148.13;5091064;28;20036;-60
2022/05/14 04:38:28;;;;;;;4.72;1.40;;;;;;;12.80;65.99;99155.34;5091069;28;20044;-60
2022/05/14 04:41:14;;;;;;;5.10;1.40;;;;;;;12.87;65.55;99150.47;5076994;28;20394;-61
2022/05/14 04:44:02;;;;;;;3.70;1.13;;;;;;;12.87;65.66;99161.00;5090618;28;20096;-60
2022/05/14 04:46:47;;;;;;;4.63;1.38;;;;;;;13.09;65.58;99165.53;5091101;28;20044;-60
2022/05/14 04:49:38;;;;;;;4.70;1.40;;;;;;;13.31;65.47;99163.97;5077199;28;20443;-60
2022/05/14 04:52:23;;;;;;;2.38;1.33;;;;;;;13.32;64.31;99170.09;5091957;28;20052;-60
2022/05/14 04:55:09;;;;;;;4.75;1.30;;;;;;;13.40;63.66;99167.69;5076822;28;20048;-60
2022/05/14 04:57:54;;;;;;;3.63;1.15;;;;;;;13.58;65.53;99175.22;5076730;28;20095;-60
2022/05/14 05:00:41;;;;;;;3.08;1.23;;;;;;;13.64;63.26;99178.22;5090612;28;20036;-60
2022/05/14 05:03:28;;;;;;;4.55;1.50;;;;;;;13.60;62.87;99176.78;5092140;28;20040;-60
2022/05/14 05:06:18;;;;;;;2.95;1.40;;;;;;;13.45;63.27;99178.72;5106045;28;20032;-60
2022/05/14 05:09:03;;;;;;;2.67;1.20;;;;;;;13.56;62.27;99188.50;5092702;28;20044;-59
2022/05/14 05:11:48;;;;;;;3.10;1.50;;;;;;;13.52;62.69;99185.25;5091904;28;20422;-59
2022/05/14 05:14:33;;;;;;;3.85;1.55;;;;;;;13.59;61.53;99193.53;5092101;28;20119;-58
2022/05/14 05:17:18;;;;;;;1.50;1.10;;;;;;;13.47;62.30;99200.50;5097809;28;20040;-58
2022/05/14 05:20:04;;;;;;;4.38;1.38;;;;;;;13.60;63.40;99199.63;5103483;28;20815;-59
2022/05/14 05:22:49;;;;;;;7.65;1.40;;;;;;;13.59;61.12;99197.97;5082201;28;20043;-59
2022/05/14 05:25:35;;;;;;;2.50;1.13;;;;;;;13.75;61.10;99195.00;5080614;28;20115;-59
2022/05/14 05:28:21;;;;;;;4.88;1.38;;;;;;;13.71;60.56;99206.75;5095990;28;20056;-59
2022/05/14 05:31:07;;;;;;;2.65;1.25;;;;;;;13.66;61.39;99207.91;5097275;28;20034;-59
2022/05/14 05:33:51;;;;;;;4.30;1.20;;;;;;;14.02;59.92;99207.88;5097049;28;20044;-59
2022/05/14 05:36:36;;;;;;;4.95;1.35;;;;;;;14.04;60.39;99213.88;5108925;28;20538;-60
2022/05/14 05:39:21;;;;;;;1.83;1.17;;;;;;;13.96;61.05;99213.63;5095457;28;20093;-59
2022/05/14 05:42:06;;;;;;;2.65;1.33;;;;;;;13.97;61.67;99223.19;5094838;28;20467;-60
2022/05/14 05:44:50;;;;;;;5.15;1.55;;;;;;;14.36;60.10;99222.06;5095053;28;20036;-60
2022/05/14 05:47:35;;;;;;;2.58;1.00;;;;;;;14.41;61.71;99218.13;5095072;28;20036;-60
2022/05/14 05:50:20;;;;;;;4.63;1.50;;;;;;;14.36;60.67;99230.81;5094859;28;20044;-60
2022/05/14 05:53:05;;;;;;;3.17;1.42;;;;;;;14.54;60.00;99238.25;5108175;28;20467;-59
2022/05/14 05:58:53;;;;;;;5.32;1.60;;;;;;;15.06;59.67;99232.50;5094624;28;20071;-59
2022/05/14 06:01:38;;;;;;;5.97;1.40;;;;;;;15.09;60.11;99242.81;5094753;28;20494;-59
2022/05/14 06:04:23;;;;;;;6.05;1.70;;;;;;;15.14;59.63;99247.72;5079036;28;20388;-59
2022/05/14 06:07:07;;;;;;;3.65;1.48;;;;;;;15.08;59.09;99249.03;5107889;28;20431;-59
2022/05/14 06:09:52;;;;;;;2.08;1.45;;;;;;;15.28;57.30;99254.50;5094467;28;20387;-59
2022/05/14 06:12:38;;;;;;;4.25;1.30;;;;;;;15.01;58.74;99255.78;5094290;28;20032;-59
2022/05/14 06:15:23;;;;;;;3.50;1.80;;;;;;;15.32;57.77;99258.59;5094472;28;20051;-59
2022/05/14 06:18:08;;;;;;;3.90;1.60;;;;;;;15.61;57.60;99258.00;5094180;28;20036;-59
2022/05/14 06:20:53;;;;;;;3.70;1.70;;;;;;;15.84;56.52;99263.19;5079070;28;20051;-59
2022/05/14 06:23:38;;;;;;;4.43;1.20;;;;;;;16.29;55.06;99271.88;5094127;28;20032;-58
2022/05/14 06:26:23;;;;;;;4.20;1.65;;;;;;;16.56;53.59;99277.56;5092360;28;20058;-59
2022/05/14 06:29:08;;;;;;;3.40;1.70;;;;;;;16.49;54.22;99275.47;5094246;28;20047;-59
2022/05/14 06:31:53;;;;;;;4.47;1.52;;;;;;;16.58;54.37;99275.66;5093105;28;20139;-59
2022/05/14 06:34:38;;;;;;;3.17;1.90;;;;;;;16.67;53.01;99274.00;5078674;28;20036;-59
2022/05/14 06:37:23;;;;;;;4.78;1.70;;;;;;;16.98;52.85;99274.00;5078814;28;20089;-59
2022/05/14 06:40:09;;;;;;;2.70;1.40;;;;;;;17.31;52.38;99266.72;5093948;28;20502;-61
2022/05/14 06:42:54;;;;;;;3.88;1.63;;;;;;;17.66;50.89;99269.81;5092712;28;20040;-62
2022/05/14 06:45:39;;;;;;;3.90;1.40;;;;;;;17.29;52.58;99281.91;5093832;28;20039;-60
2022/05/14 06:48:24;;;;;;;3.70;1.35;;;;;;;17.77;50.80;99281.25;5092571;28;20036;-59
2022/05/14 06:51:24;;;;;;;2.85;1.25;;;;;;;17.62;50.30;99284.31;5093681;28;20048;-60
2022/05/14 06:54:11;;;;;;;2.67;1.40;;;;;;;18.02;50.64;99282.47;5078707;28;20062;-60
2022/05/14 06:56:57;;;;;;;6.35;1.60;;;;;;;17.77;52.46;99284.75;5092659;28;20032;-60
2022/05/14 06:59:41;;;;;;;2.40;1.45;;;;;;;17.88;51.26;99289.06;5093641;28;20412;-60
2022/05/14 07:02:28;;;;;;;3.75;1.60;;;;;;;17.06;53.64;99300.63;5093469;28;20040;-59
2022/05/14 07:08:17;;;;;;;7.13;1.95;;;;;;;16.86;53.83;99300.53;5092554;28;20043;-59
2022/05/14 07:11:02;;;;;;;4.75;1.60;;;;;;;16.42;56.10;99294.63;5078233;28;20028;-60
2022/05/14 07:13:47;;;;;;;2.28;1.48;;;;;;;17.49;55.51;99293.34;5092193;28;20138;-61
2022/05/14 07:16:31;;;;;;;4.88;1.50;;;;;;;18.22;52.30;99290.44;5077871;28;20051;-61
2022/05/14 07:19:17;;;;;;;2.38;1.58;;;;;;;17.80;51.98;99288.91;5078090;28;20475;-60
2022/05/14 07:22:01;;;;;;;5.30;2.00;;;;;;;17.07;53.40;99296.16;5092455;28;20379;-60
2022/05/14 07:24:47;;;;;;;4.10;2.00;;;;;;;16.69;56.04;99295.88;5102224;28;20036;-60
2022/05/14 07:27:31;;;;;;;2.58;1.70;;;;;;;17.81;52.73;99285.28;5114020;28;20527;-60
2022/05/14 07:30:16;;;;;;;3.05;1.67;;;;;;;17.78;53.24;99281.13;5113712;28;20044;-61
2022/05/14 07:33:01;;;;;;;2.60;1.60;;;;;;;17.82;52.23;99292.28;5113920;28;20039;-61
2022/05/14 07:35:46;;;;;;;3.50;1.60;;;;;;;18.43;51.49;99300.03;5113660;28;20067;-60
2022/05/14 07:38:34;;;;;;;3.55;1.75;;;;;;;17.92;52.66;99294.94;5111629;28;20118;-59
2022/05/14 07:41:19;;;;;;;2.72;1.60;;;;;;;18.36;51.96;99297.09;5112381;28;20044;-60
2022/05/14 07:44:08;;;;;;;5.93;2.10;;;;;;;17.96;52.09;99283.91;5112970;28;20036;-60
2022/05/14 07:46:53;;;;;;;2.97;1.35;;;;;;;18.49;50.01;99291.50;5112997;28;20044;-59
2022/05/14 07:49:37;;;;;;;4.90;1.60;;;;;;;19.36;48.91;99282.47;5083537;28;20062;-59
2022/05/14 07:52:23;;;;;;;6.00;1.38;;;;;;;20.34;45.52;99287.97;5113051;28;20058;-59
2022/05/14 07:55:09;;;;;;;1.77;1.40;;;;;;;19.95;44.11;99283.84;5112980;28;20043;-62
2022/05/14 07:57:54;;;;;;;3.83;1.20;;;;;;;19.64;45.30;99289.56;5112940;28;20043;-60
2022/05/14 08:00:39;;;;;;;5.22;1.50;;;;;;;20.02;44.58;99284.06;5111888;28;20044;-59
2022/05/14 08:03:26;;;;;;;3.75;1.65;;;;;;;20.22;43.73;99279.41;5083264;28;20135;-60
2022/05/14 08:06:11;;;;;;;4.05;1.33;;;;;;;20.13;41.97;99275.88;5112479;28;20470;-60
2022/05/14 08:08:57;;;;;;;4.00;1.23;;;;;;;20.18;42.09;99270.94;5112453;28;20032;-60
2022/05/14 08:11:42;;;;;;;2.08;1.10;;;;;;;20.22;42.58;99278.59;5111607;28;20335;-59
2022/05/14 08:14:28;;;;;;;4.20;1.10;;;;;;;21.11;41.36;99277.56;5097208;28;20495;-59
2022/05/14 08:17:13;;;;;;;1.70;1.00;;;;;;;21.93;39.09;99272.53;5111328;28;20036;-60
2022/05/14 08:19:58;;;;;;;9.50;1.48;;;;;;;21.41;40.50;99268.13;5111357;28;20071;-61
2022/05/14 08:25:46;;;;;;;6.22;1.98;;;;;;;21.99;37.97;99272.72;5112146;28;20043;-60
2022/05/14 08:28:31;;;;;;;3.58;1.25;;;;;;;21.84;38.34;99272.53;5097004;28;20379;-59
2022/05/14 08:31:17;;;;;;;1.90;0.73;;;;;;;22.20;38.15;99275.84;5112380;28;20044;-60
2022/05/14 08:34:01;;;;;;;12.60;2.17;;;;;;;21.84;37.05;99269.88;5112229;28;20048;-60
2022/05/14 08:36:48;;;;;;;3.47;1.05;;;;;;;21.99;36.79;99262.06;5112322;28;20050;-60
2022/05/14 08:39:33;;;;;;;2.13;1.10;;;;;;;22.49;36.84;99264.63;5096845;28;20065;-60
2022/05/14 08:42:18;;;;;;;1.75;0.90;;;;;;;22.26;36.78;99268.00;5111322;28;20032;-60
2022/05/14 08:45:02;;;;;;;8.40;1.63;;;;;;;22.75;33.99;99257.41;5112474;28;20047;-59
2022/05/14 08:47:56;;;;;;;4.65;1.25;;;;;;;22.21;33.92;99261.53;5125702;27;20035;-59
2022/05/14 08:50:42;;;;;;;3.45;1.10;;;;;;;21.87;34.72;99258.88;5110953;28;20032;-59
2022/05/14 08:53:28;;;;;;;4.57;1.23;;;;;;;22.16;35.74;99256.69;5112600;28;20055;-60
2022/05/14 08:56:21;;;;;;;2.25;1.10;;;;;;;22.64;35.13;99258.59;5111903;28;20040;-59
2022/05/14 08:59:26;;;;;;;4.68;0.98;;;;;;;23.09;33.46;99255.41;5111080;28;20054;-61
2022/05/14 09:02:18;;;;;;;1.88;0.90;;;;;;;23.74;33.90;99260.53;5112177;28;20036;-60
2022/05/14 09:05:19;;;;;;;3.28;1.25;;;;;;;23.26;32.70;99259.66;5107310;28;20044;-59
2022/05/14 09:08:04;;;;;;;1.48;0.88;;;;;;;23.52;34.39;99246.97;5091687;28;20146;-59
2022/05/14 09:11:01;;;;;;;1.77;1.00;;;;;;;23.62;31.76;99257.44;5090545;28;20043;-59
2022/05/14 09:13:49;;;;;;;4.28;1.10;;;;;;;23.49;32.88;99252.69;5091546;28;20036;-60
2022/05/14 09:16:37;;;;;;;2.58;0.80;;;;;;;23.87;32.86;99241.19;5091748;28;20048;-60
2022/05/14 09:19:24;;;;;;;2.17;0.90;;;;;;;23.60;34.79;99246.09;5090411;28;20089;-60
2022/05/14 09:22:11;;;;;;;3.72;0.90;;;;;;;24.09;32.10;99242.16;5092520;28;20097;-62
2022/05/14 09:25:05;;;;;;;1.42;0.82;;;;;;;24.77;33.67;99250.31;5094252;28;20046;-60
2022/05/14 09:28:11;;;;;;;3.33;0.80;;;;;;;24.68;30.25;99246.91;5091624;28;20055;-59
2022/05/14 09:30:59;;;;;;;2.88;0.80;;;;;;;24.16;31.34;99244.13;5091324;28;20040;-60
2022/05/14 09:33:45;;;;;;;1.90;0.90;;;;;;;23.55;34.00;99246.63;5090068;28;20064;-60
2022/05/14 09:36:31;;;;;;;5.68;0.93;;;;;;;24.53;33.50;99244.25;5090157;28;20047;-60
2022/05/14 09:39:21;;;;;;;2.85;1.02;;;;;;;24.11;30.65;99241.97;5091121;28;20036;-61
2022/05/14 09:42:25;;;;;;;4.72;1.00;;;;;;;25.13;30.15;99248.72;5089970;28;20074;-60
2022/05/14 09:45:31;;;;;;;1.40;0.82;;;;;;;25.01;28.63;99238.47;5090947;28;20047;-60
2022/05/14 09:48:20;;;;;;;1.33;0.82;;;;;;;24.39;30.24;99236.03;5090114;28;20340;-60
2022/05/14 09:51:09;;;;;;;1.92;0.90;;;;;;;24.90;30.52;99239.81;5089798;28;20043;-59
2022/05/14 09:53:54;;;;;;;3.42;1.00;;;;;;;25.00;30.73;99234.16;5090937;28;20028;-59
2022/05/14 09:56:58;;;;;;;3.17;0.93;;;;;;;24.79;30.54;99225.00;5091111;28;20040;-60
2022/05/14 09:59:52;;;;;;;2.08;0.70;;;;;;;25.56;30.89;99221.91;5091046;28;20043;-60
2022/05/14 10:03:19;;;;;;;5.45;1.23;;;;;;;24.50;31.81;99229.38;5092181;28;20062;-60
2022/05/14 10:06:48;;;;;;;1.83;0.75;;;;;;;24.95;31.18;99220.47;5094979;28;20518;-61
2022/05/14 10:09:58;;;;;;;3.22;1.00;;;;;;;25.27;30.99;99222.88;5093821;28;20032;-60
2022/05/14 10:12:50;;;;;;;1.80;0.80;;;;;;;25.63;30.09;99208.59;5095226;28;20386;-59
2022/05/14 10:16:03;;;;;;;4.05;1.15;;;;;;;24.91;30.68;99211.97;5094748;28;20044;-60
2022/05/14 10:19:20;;;;;;;1.98;1.00;;;;;;;25.24;30.88;99208.00;5094938;28;20044;-60
2022/05/14 10:22:12;;;;;;;4.40;0.80;;;;;;;26.34;29.54;99197.97;5093292;28;20494;-60
2022/05/14 10:28:35;;;;;;;3.13;1.02;;;;;;;25.81;29.05;99199.25;5094180;28;20036;-61
2022/05/14 10:31:28;;;;;;;1.52;0.60;;;;;;;25.53;28.76;99192.81;5094058;28;20040;-60
2022/05/14 10:34:23;;;;;;;2.13;0.80;;;;;;;25.83;29.25;99200.72;5094049;28;20067;-60
2022/05/14 10:37:43;;;;;;;2.45;0.80;;;;;;;26.01;29.04;99195.88;5092853;28;20538;-60
2022/05/14 10:40:42;;;;;;;1.20;0.70;;;;;;;25.49;29.31;99193.38;5093846;28;20040;-62
2022/05/14 10:43:56;;;;;;;4.22;0.95;;;;;;;26.09;28.79;99195.72;5092685;28;20040;-61
2022/05/14 10:46:44;;;;;;;3.60;1.10;;;;;;;26.52;27.97;99188.53;5093546;28;20047;-61
2022/05/14 10:49:57;;;;;;;3.72;0.88;;;;;;;26.28;27.79;99188.81;5094747;28;20047;-60
2022/05/14 10:52:44;;;;;;;2.63;0.68;;;;;;;27.03;27.00;99192.66;5092611;28;20506;-61
2022/05/14 10:55:35;;;;;;;2.47;0.73;;;;;;;27.18;26.12;99183.59;5092923;28;20071;-60
2022/05/14 10:58:41;;;;;;;6.20;0.80;;;;;;;26.81;26.85;99178.53;5093136;28;20047;-61
2022/05/14 11:01:54;;;;;;;3.45;0.90;;;;;;;26.62;26.80;99183.63;5092992;28;20044;-60
2022/05/14 11:04:39;;;;;;;1.60;0.50;;;;;;;26.31;29.39;99177.66;5094184;28;20056;-60
2022/05/14 11:07:33;;;;;;;3.25;0.70;;;;;;;27.13;27.92;99184.19;5092755;28;20068;-60
2022/05/14 11:10:48;;;;;;;3.20;0.93;;;;;;;27.29;27.00;99182.16;5093632;28;20036;-62
2022/05/14 11:13:34;;;;;;;2.00;0.63;;;;;;;26.91;26.65;99178.94;5093748;28;20044;-60
2022/05/14 11:16:19;;;;;;;2.35;0.73;;;;;;;28.12;27.98;99177.34;5093338;28;20036;-60
2022/05/14 11:19:04;;;;;;;1.40;0.60;;;;;;;28.68;24.47;99168.91;5077783;28;20040;-60
2022/05/14 11:21:50;;;;;;;3.67;0.98;;;;;;;27.05;28.29;99174.47;5094890;28;20047;-60
2022/05/14 11:24:41;;;;;;;1.48;0.60;;;;;;;27.38;26.25;99178.25;5090346;28;20114;-61
2022/05/14 11:27:33;;;;;;;3.03;0.63;;;;;;;27.01;27.28;99175.09;5114803;28;20050;-60
2022/05/14 11:30:47;;;;;;;1.42;0.50;;;;;;;27.52;26.61;99184.44;5114118;28;20066;-60
2022/05/14 11:33:34;;;;;;;2.30;0.60;;;;;;;28.00;24.54;99173.66;5112923;28;20433;-60
2022/05/14 11:36:34;;;;;;;1.58;0.70;;;;;;;28.32;27.04;99170.28;5098252;28;20054;-61
2022/05/14 11:39:20;;;;;;;2.10;0.73;;;;;;;27.52;26.25;99167.47;5126798;27;20035;-59
2022/05/14 11:42:25;;;;;;;2.17;0.60;;;;;;;28.53;26.07;99171.84;5113601;28;20039;-60
2022/05/14 11:45:19;;;;;;;1.77;0.40;;;;;;;27.46;25.59;99166.44;5113125;28;20363;-59
2022/05/14 11:48:11;;;;;;;2.40;0.95;;;;;;;25.91;29.57;99164.03;5113030;28;20044;-62
2022/05/14 11:51:02;;;;;;;3.40;0.50;;;;;;;27.18;26.94;99167.47;5113173;28;20028;-60
2022/05/14 11:54:01;;;;;;;1.90;0.50;;;;;;;28.38;26.05;99167.56;5113130;28;20043;-60
2022/05/14 11:56:55;;;;;;;2.28;0.43;;;;;;;27.75;26.65;99161.69;5113050;28;20039;-61
2022/05/14 11:59:55;;;;;;;2.22;0.57;;;;;;;28.28;25.01;99167.19;5113066;28;20039;-59
2022/05/14 12:02:49;;;;;;;;;;;;;;;27.55;25.42;99162.50;5113483;28;20039;-60
2022/05/14 12:05:40;;;;;;;4.10;0.70;;;;;;;27.92;26.32;99161.28;5112998;28;20021;-60
2022/05/14 12:09:03;;;;;;;2.40;0.60;;;;;;;28.04;25.30;99147.97;5112656;28;20050;-61
2022/05/14 12:11:55;;;;;;;1.45;0.63;;;;;;;28.16;24.95;99146.31;5112674;28;20143;-61
2022/05/14 12:14:41;;;;;;;0.70;0.57;;;;;;;27.20;28.68;99137.69;5111745;28;20123;-61
2022/05/14 12:17:27;;;;;;;1.75;0.57;;;;;;;25.70;29.08;99142.44;5112638;28;20043;-61
2022/05/14 12:20:28;;;;;;;2.38;0.70;;;;;;;25.57;29.04;99142.31;5112318;28;20382;-61
2022/05/14 12:23:17;;;;;;;14.93;0.93;;;;;;;26.21;27.91;99136.94;5112453;28;20039;-61
2022/05/14 12:26:24;;;;;;;3.92;0.75;;;;;;;26.04;28.58;99125.72;5110928;28;20153;-60
2022/05/14 12:29:21;;;;;;;1.45;0.50;;;;;;;28.40;26.60;99122.41;5111661;28;20043;-60
2022/05/14 12:35:15;;;;;;;5.30;0.90;;;;;;;27.38;26.53;99121.78;5111477;28;20046;-61
2022/05/14 12:38:05;;;;;;;3.50;0.77;;;;;;;28.03;25.89;99120.25;5112370;28;20092;-60
2022/05/14 12:40:51;;;;;;;3.13;0.60;;;;;;;27.61;27.84;99117.81;5111129;28;20046;-59
2022/05/14 12:43:41;;;;;;;1.73;0.55;;;;;;;27.70;26.58;99118.44;5111237;28;20049;-60
2022/05/14 12:46:26;;;;;;;2.20;0.70;;;;;;;27.11;26.99;99118.25;5111006;28;20040;-60
2022/05/14 12:49:21;;;;;;;1.92;0.50;;;;;;;26.85;28.93;99117.97;5111126;28;20055;-60
2022/05/14 12:52:16;;;;;;;1.75;0.50;;;;;;;26.89;28.14;99111.16;5111969;28;20140;-59
2022/05/14 12:55:09;;;;;;;1.40;0.40;;;;;;;27.26;27.53;99116.19;5112430;28;20117;-60
2022/05/14 12:57:56;;;;;;;4.80;0.50;;;;;;;27.67;26.62;99100.88;5111525;28;20071;-61
2022/05/14 13:00:47;;;;;;;1.80;0.60;;;;;;;27.81;25.37;99110.78;5112269;28;20160;-61
2022/05/14 13:03:39;;;;;;;3.30;0.60;;;;;;;26.92;27.40;99099.16;5112425;28;20043;-60
2022/05/14 13:06:28;;;;;;;3.85;0.50;;;;;;;26.73;27.02;99087.38;5111986;28;20102;-61
2022/05/14 13:09:22;;;;;;;2.03;0.70;;;;;;;27.10;28.02;99084.31;5083042;28;20474;-60
2022/05/14 13:12:14;;;;;;;3.13;0.60;;;;;;;26.70;27.08;99080.56;5112099;28;20043;-61
2022/05/14 13:15:03;;;;;;;4.30;0.73;;;;;;;26.93;26.95;99084.69;5112073;28;20070;-60
2022/05/14 13:17:48;;;;;;;2.58;0.60;;;;;;;27.35;25.98;99076.47;5096758;28;20040;-61
2022/05/14 13:20:34;;;;;;;4.25;0.70;;;;;;;27.20;26.36;99067.78;5110786;28;20050;-60
2022/05/14 13:23:21;;;;;;;3.38;0.60;;;;;;;26.90;26.81;99068.97;5125450;28;20448;-61
2022/05/14 13:26:09;;;;;;;5.05;0.70;;;;;;;27.17;27.06;99060.97;5119933;28;20039;-59
2022/05/14 13:29:07;;;;;;;1.05;0.68;;;;;;;27.38;26.08;99062.63;5113464;28;20039;-59
2022/05/14 13:32:08;;;;;;;2.95;0.68;;;;;;;27.10;31.50;99047.53;5096955;28;20044;-61
2022/05/14 13:37:57;;;;;;;1.75;0.55;;;;;;;26.77;26.52;99057.19;5113321;28;20040;-59
2022/05/14 13:40:48;;;;;;;3.47;0.55;;;;;;;26.47;27.62;99051.38;5086043;28;20092;-61